Time,TemperatureF,DewpointF,PressureIn,WindDirection,WindDirectionDegrees,WindSpeedMPH,WindSpeedGustMPH,Humidity,HourlyPrecipIn,Conditions,Clouds,dailyrainin,SoftwareType,DateUTC
2013-01-16 00:07:00,28.2,22.2,30.29,South,188,0.0,4.8,78,0.00,,BKN,0.00,VWS V14.00,2013-01-16 05:07:00,
2013-01-16 00:12:00,28.1,22.2,30.29,South,188,0.0,4.8,78,0.00,,BKN,0.00,VWS V14.00,2013-01-16 05:12:00,
2013-01-16 00:17:00,28.1,22.2,30.29,SSW,195,0.0,4.8,78,0.00,,BKN,0.00,VWS V14.00,2013-01-16 05:17:00,
2013-01-16 00:22:00,28.0,22.1,30.28,SSW,195,0.0,4.8,78,0.00,,BKN,0.00,VWS V14.00,2013-01-16 05:22:00,
2013-01-16 00:27:00,28.0,22.2,30.28,SSW,195,0.0,0.0,78,0.00,,BKN,0.00,VWS V14.00,2013-01-16 05:27:00,
2013-01-16 00:30:00,28.1,22.3,30.28,SSW,195,0.0,4.8,78,0.00,,SCT,0.00,VWS V14.00,2013-01-16 05:30:00,
2013-01-16 00:32:00,28.0,22.2,30.28,SSW,195,0.0,0.0,78,0.00,,BKN,0.00,VWS V14.00,2013-01-16 05:32:00,
2013-01-16 00:37:00,27.9,22.1,30.28,SSW,195,0.0,0.0,79,0.00,,BKN,0.00,VWS V14.00,2013-01-16 05:37:00,
2013-01-16 00:42:00,27.9,22.2,30.28,SSW,195,0.0,0.0,79,0.00,,BKN,0.00,VWS V14.00,2013-01-16 05:42:00,
2013-01-16 00:47:00,28.0,22.2,30.28,SSW,195,0.0,0.0,79,0.00,,BKN,0.00,VWS V14.00,2013-01-16 05:47:00,
2013-01-16 00:52:00,27.9,22.2,30.28,SSW,195,0.0,0.0,79,0.00,,BKN,0.00,VWS V14.00,2013-01-16 05:52:00,
2013-01-16 00:57:00,27.9,22.3,30.27,SSW,195,0.0,0.0,79,0.00,,BKN,0.00,VWS V14.00,2013-01-16 05:57:00,
2013-01-16 01:00:00,27.9,22.3,30.27,SSW,195,0.0,0.0,79,0.00,,SCT,0.00,VWS V14.00,2013-01-16 06:00:00,
2013-01-16 01:02:00,28.0,22.4,30.27,SSW,195,0.0,0.0,79,0.00,,BKN,0.00,VWS V14.00,2013-01-16 06:02:00,
2013-01-16 01:07:00,27.8,22.2,30.27,SSW,195,0.0,0.0,79,0.00,,BKN,0.00,VWS V14.00,2013-01-16 06:07:00,
2013-01-16 01:12:00,27.9,22.5,30.26,SSW,195,0.0,0.0,80,0.00,,BKN,0.00,VWS V14.00,2013-01-16 06:12:00,
2013-01-16 01:17:00,27.9,22.5,30.26,SSW,195,0.0,0.0,80,0.00,,BKN,0.00,VWS V14.00,2013-01-16 06:17:00,
2013-01-16 01:22:00,27.7,22.4,30.26,SSW,195,0.0,0.0,80,0.00,,BKN,0.00,VWS V14.00,2013-01-16 06:22:00,
2013-01-16 01:27:00,27.6,22.4,30.25,SSW,195,0.0,0.0,80,0.00,,BKN,0.00,VWS V14.00,2013-01-16 06:27:00,
2013-01-16 01:30:00,27.6,22.3,30.25,SSW,195,0.0,0.0,80,0.00,,SCT,0.00,VWS V14.00,2013-01-16 06:30:00,
2013-01-16 01:32:00,27.3,22.2,30.25,SSW,195,0.0,0.0,81,0.00,,BKN,0.00,VWS V14.00,2013-01-16 06:32:00,
2013-01-16 01:37:00,27.2,22.2,30.25,SSW,195,0.0,0.0,81,0.00,,BKN,0.00,VWS V14.00,2013-01-16 06:37:00,
2013-01-16 01:42:00,27.1,22.3,30.25,SSW,195,0.0,0.0,82,0.00,,BKN,0.00,VWS V14.00,2013-01-16 06:42:00,
2013-01-16 01:47:00,26.9,22.2,30.24,SSW,195,0.0,0.0,82,0.00,,BKN,0.00,VWS V14.00,2013-01-16 06:47:00,
2013-01-16 01:52:00,27.0,22.3,30.24,SSW,195,0.0,0.0,82,0.00,,BKN,0.00,VWS V14.00,2013-01-16 06:52:00,
2013-01-16 01:57:00,27.0,22.2,30.24,SSW,195,0.0,0.0,82,0.00,,BKN,0.00,VWS V14.00,2013-01-16 06:57:00,
2013-01-16 02:00:00,26.9,22.1,30.24,SSW,195,0.0,0.0,82,0.00,,SCT,0.00,VWS V14.00,2013-01-16 07:00:00,
2013-01-16 02:02:00,26.9,22.1,30.24,SSW,195,0.0,0.0,82,0.00,,BKN,0.00,VWS V14.00,2013-01-16 07:02:00,
2013-01-16 02:07:00,27.0,22.3,30.24,SSW,195,0.0,0.0,82,0.00,,BKN,0.00,VWS V14.00,2013-01-16 07:07:00,
2013-01-16 02:12:00,27.0,22.4,30.23,SSW,195,0.0,0.0,82,0.00,,BKN,0.00,VWS V14.00,2013-01-16 07:12:00,
2013-01-16 02:17:00,26.9,22.6,30.23,SSW,195,0.0,0.0,84,0.00,,BKN,0.00,VWS V14.00,2013-01-16 07:17:00,
2013-01-16 02:22:00,26.7,22.4,30.23,SSW,195,0.0,0.0,84,0.00,,BKN,0.00,VWS V14.00,2013-01-16 07:22:00,
2013-01-16 02:27:00,26.9,22.7,30.23,SSW,195,0.0,0.0,84,0.00,,BKN,0.00,VWS V14.00,2013-01-16 07:27:00,
2013-01-16 02:30:00,26.8,22.5,30.23,SSW,195,0.0,0.0,84,0.00,,SCT,0.00,VWS V14.00,2013-01-16 07:30:00,
2013-01-16 02:33:00,26.8,22.6,30.23,SSW,195,0.0,0.0,84,0.00,,BKN,0.00,VWS V14.00,2013-01-16 07:33:00,
2013-01-16 02:38:00,26.6,22.3,30.23,SSW,195,0.0,0.0,84,0.00,,BKN,0.00,VWS V14.00,2013-01-16 07:38:00,
2013-01-16 02:43:00,26.7,22.5,30.23,SSW,195,0.0,0.0,84,0.00,,BKN,0.00,VWS V14.00,2013-01-16 07:43:00,
2013-01-16 02:48:00,26.5,22.4,30.22,SSW,195,0.0,0.0,84,0.00,,BKN,0.00,VWS V14.00,2013-01-16 07:48:00,
2013-01-16 02:53:00,26.5,22.4,30.22,SSW,195,0.0,0.0,84,0.00,,BKN,0.00,VWS V14.00,2013-01-16 07:53:00,
2013-01-16 02:58:00,26.6,22.5,30.22,SSW,195,0.0,0.0,84,0.00,,BKN,0.00,VWS V14.00,2013-01-16 07:58:00,
2013-01-16 03:00:00,26.5,22.4,30.22,SSW,195,0.0,0.0,84,0.00,,SCT,0.00,VWS V14.00,2013-01-16 08:00:00,
2013-01-16 03:03:00,26.5,22.4,30.22,SSW,195,0.0,0.0,84,0.00,,BKN,0.00,VWS V14.00,2013-01-16 08:03:00,
2013-01-16 03:08:00,26.5,22.5,30.22,SSW,195,0.0,0.0,85,0.00,,BKN,0.00,VWS V14.00,2013-01-16 08:08:00,
2013-01-16 03:13:00,26.6,22.6,30.22,SSW,195,0.0,0.0,85,0.00,,BKN,0.00,VWS V14.00,2013-01-16 08:13:00,
2013-01-16 03:18:00,26.6,22.6,30.22,SSW,195,0.0,0.0,85,0.00,,BKN,0.00,VWS V14.00,2013-01-16 08:18:00,
2013-01-16 03:23:00,26.6,22.7,30.22,SSW,195,0.0,0.0,85,0.00,,BKN,0.00,VWS V14.00,2013-01-16 08:23:00,
2013-01-16 03:28:00,26.6,22.8,30.21,SSW,195,0.0,0.0,85,0.00,,BKN,0.00,VWS V14.00,2013-01-16 08:28:00,
2013-01-16 03:30:00,26.5,22.6,30.21,SSW,195,0.0,0.0,85,0.00,,SCT,0.00,VWS V14.00,2013-01-16 08:30:00,
2013-01-16 03:33:00,26.6,22.9,30.21,SSW,195,0.0,0.0,86,0.00,,BKN,0.00,VWS V14.00,2013-01-16 08:33:00,
2013-01-16 03:38:00,26.7,23.0,30.21,SSW,195,0.0,0.0,86,0.00,,BKN,0.00,VWS V14.00,2013-01-16 08:38:00,
2013-01-16 03:43:00,26.5,22.7,30.20,SSW,195,0.0,0.0,85,0.00,,BKN,0.00,VWS V14.00,2013-01-16 08:43:00,
2013-01-16 03:48:00,26.7,22.9,30.20,SSW,195,0.0,0.0,85,0.00,,BKN,0.00,VWS V14.00,2013-01-16 08:48:00,
2013-01-16 03:53:00,26.6,22.7,30.20,SSW,195,0.0,0.0,85,0.00,,BKN,0.00,VWS V14.00,2013-01-16 08:53:00,
2013-01-16 03:58:00,26.6,22.8,30.19,SSW,195,0.0,0.0,85,0.00,,BKN,0.00,VWS V14.00,2013-01-16 08:58:00,
2013-01-16 04:00:00,26.5,22.7,30.20,SSW,195,0.0,0.0,85,0.00,,SCT,0.00,VWS V14.00,2013-01-16 09:00:00,
2013-01-16 04:03:00,26.6,22.9,30.20,SSW,195,0.0,0.0,86,0.00,,BKN,0.00,VWS V14.00,2013-01-16 09:03:00,
2013-01-16 04:08:00,26.6,23.0,30.20,SSW,195,0.0,0.0,86,0.00,,BKN,0.00,VWS V14.00,2013-01-16 09:08:00,
2013-01-16 04:13:00,26.6,23.0,30.19,SSW,195,0.0,0.0,86,0.00,,BKN,0.00,VWS V14.00,2013-01-16 09:13:00,
2013-01-16 04:18:00,26.8,23.2,30.18,SSW,195,0.0,0.0,86,0.00,,BKN,0.00,VWS V14.00,2013-01-16 09:18:00,
2013-01-16 04:23:00,26.6,23.0,30.18,SSW,195,0.0,0.0,86,0.00,,BKN,0.00,VWS V14.00,2013-01-16 09:23:00,
2013-01-16 04:28:00,26.7,23.1,30.18,SSW,195,0.0,0.0,86,0.00,,BKN,0.00,VWS V14.00,2013-01-16 09:28:00,
2013-01-16 04:30:00,26.7,23.1,30.17,SSW,195,0.0,0.0,86,0.00,,SCT,0.00,VWS V14.00,2013-01-16 09:30:00,
2013-01-16 04:33:00,26.8,23.2,30.17,SSW,195,0.0,0.0,86,0.00,,BKN,0.00,VWS V14.00,2013-01-16 09:33:00,
2013-01-16 04:38:00,26.7,23.1,30.17,SSW,195,0.0,0.0,86,0.00,,BKN,0.00,VWS V14.00,2013-01-16 09:38:00,
2013-01-16 04:43:00,26.7,23.0,30.17,SSW,195,0.0,0.0,86,0.00,,BKN,0.00,VWS V14.00,2013-01-16 09:43:00,
2013-01-16 04:48:00,26.9,23.2,30.17,SSW,195,0.0,0.0,86,0.00,,BKN,0.00,VWS V14.00,2013-01-16 09:48:00,
2013-01-16 04:53:00,26.9,23.2,30.17,SSW,195,0.0,0.0,86,0.00,,BKN,0.00,VWS V14.00,2013-01-16 09:53:00,
2013-01-16 04:58:00,26.9,23.1,30.17,SSW,195,0.0,0.0,86,0.00,,BKN,0.00,VWS V14.00,2013-01-16 09:58:00,
2013-01-16 05:00:00,27.0,23.2,30.17,SSW,195,0.0,0.0,86,0.00,,SCT,0.00,VWS V14.00,2013-01-16 10:00:00,
2013-01-16 05:03:00,27.0,23.3,30.17,SSW,195,0.0,0.0,86,0.00,,BKN,0.00,VWS V14.00,2013-01-16 10:03:00,
2013-01-16 05:08:00,27.1,23.5,30.17,SSW,195,0.0,0.0,86,0.00,,BKN,0.00,VWS V14.00,2013-01-16 10:08:00,
2013-01-16 05:13:00,27.2,23.5,30.17,SSW,195,0.0,0.0,86,0.00,,BKN,0.00,VWS V14.00,2013-01-16 10:13:00,
2013-01-16 05:18:00,27.3,23.6,30.17,SSW,195,0.0,0.0,86,0.00,,BKN,0.00,VWS V14.00,2013-01-16 10:18:00,
2013-01-16 05:23:00,27.3,23.6,30.16,SSW,195,0.0,0.0,86,0.00,,BKN,0.00,VWS V14.00,2013-01-16 10:23:00,
2013-01-16 05:28:00,27.3,23.7,30.15,SSW,195,0.0,0.0,86,0.00,,BKN,0.00,VWS V14.00,2013-01-16 10:28:00,
2013-01-16 05:30:00,27.3,23.7,30.16,SSW,195,0.0,0.0,86,0.00,,SCT,0.00,VWS V14.00,2013-01-16 10:30:00,
2013-01-16 05:33:00,27.3,23.8,30.15,SSW,195,0.0,0.0,86,0.00,,BKN,0.00,VWS V14.00,2013-01-16 10:33:00,
2013-01-16 05:38:00,27.2,23.7,30.15,SSW,195,0.0,0.0,87,0.00,,BKN,0.00,VWS V14.00,2013-01-16 10:38:00,
2013-01-16 05:43:00,27.2,23.8,30.15,SSW,195,0.0,0.0,87,0.00,,BKN,0.00,VWS V14.00,2013-01-16 10:43:00,
2013-01-16 05:48:00,27.2,23.8,30.15,SSW,195,0.0,0.0,87,0.00,,BKN,0.00,VWS V14.00,2013-01-16 10:48:00,
2013-01-16 05:53:00,27.3,23.9,30.15,SSW,195,0.0,0.0,87,0.00,,BKN,0.00,VWS V14.00,2013-01-16 10:53:00,
2013-01-16 05:58:00,27.3,24.0,30.15,SSW,195,0.0,0.0,87,0.00,,BKN,0.00,VWS V14.00,2013-01-16 10:58:00,
2013-01-16 06:00:00,27.3,24.0,30.15,SSW,195,0.0,0.0,87,0.00,,SCT,0.00,VWS V14.00,2013-01-16 11:00:00,
2013-01-16 06:03:00,27.3,24.0,30.14,SSW,195,0.0,0.0,87,0.00,,BKN,0.00,VWS V14.00,2013-01-16 11:03:00,
2013-01-16 06:08:00,27.3,24.0,30.14,SSW,195,0.0,0.0,87,0.00,,BKN,0.00,VWS V14.00,2013-01-16 11:08:00,
2013-01-16 06:13:00,27.3,24.1,30.14,SSW,195,0.0,0.0,87,0.00,,BKN,0.00,VWS V14.00,2013-01-16 11:13:00,
2013-01-16 06:18:00,27.3,24.0,30.14,SSW,195,0.0,0.0,87,0.00,,BKN,0.00,VWS V14.00,2013-01-16 11:18:00,
2013-01-16 06:23:00,27.1,23.8,30.14,SSW,195,0.0,0.0,87,0.00,,BKN,0.00,VWS V14.00,2013-01-16 11:23:00,
2013-01-16 06:28:00,27.0,23.8,30.14,SSW,195,0.0,0.0,87,0.00,,BKN,0.00,VWS V14.00,2013-01-16 11:28:00,
2013-01-16 06:30:00,27.1,23.8,30.14,SSW,195,0.0,0.0,87,0.00,,SCT,0.00,VWS V14.00,2013-01-16 11:30:00,
2013-01-16 06:33:00,27.0,23.8,30.14,SSW,195,0.0,0.0,88,0.00,,BKN,0.00,VWS V14.00,2013-01-16 11:33:00,
2013-01-16 06:38:00,27.0,23.8,30.13,SSW,195,0.0,0.0,88,0.00,,BKN,0.00,VWS V14.00,2013-01-16 11:38:00,
2013-01-16 06:43:00,26.9,23.8,30.13,SSW,195,0.0,0.0,88,0.00,,BKN,0.00,VWS V14.00,2013-01-16 11:43:00,
2013-01-16 06:48:00,26.9,23.8,30.13,SSW,195,0.0,0.0,88,0.00,,OVC,0.00,VWS V14.00,2013-01-16 11:48:00,
2013-01-16 06:53:00,26.9,23.9,30.13,SSW,195,0.0,0.0,88,0.00,,OVC,0.00,VWS V14.00,2013-01-16 11:53:00,
2013-01-16 06:58:00,27.0,24.0,30.13,SSW,195,0.0,0.0,88,0.00,,OVC,0.00,VWS V14.00,2013-01-16 11:58:00,
2013-01-16 07:00:00,26.9,23.9,30.13,SSW,195,0.0,0.0,88,0.00,,SCT,0.00,VWS V14.00,2013-01-16 12:00:00,
2013-01-16 07:03:00,27.0,23.9,30.13,SSW,195,0.0,0.0,88,0.00,,OVC,0.00,VWS V14.00,2013-01-16 12:03:00,
2013-01-16 07:08:00,27.1,24.0,30.12,SSW,195,0.0,0.0,88,0.00,,OVC,0.00,VWS V14.00,2013-01-16 12:08:00,
2013-01-16 07:13:00,27.1,23.9,30.13,SSW,195,0.0,0.0,88,0.00,,OVC,0.00,VWS V14.00,2013-01-16 12:13:00,
2013-01-16 07:18:00,27.1,23.8,30.13,SSW,195,0.0,0.0,87,0.00,,OVC,0.00,VWS V14.00,2013-01-16 12:18:00,
2013-01-16 07:23:00,27.3,23.9,30.13,SSW,195,0.0,0.0,87,0.00,,OVC,0.00,VWS V14.00,2013-01-16 12:23:00,
2013-01-16 07:28:00,27.3,23.9,30.13,SSW,195,0.0,0.0,87,0.00,,OVC,0.00,VWS V14.00,2013-01-16 12:28:00,
2013-01-16 07:30:00,27.4,24.0,30.12,SSW,195,0.0,0.0,87,0.00,,SCT,0.00,VWS V14.00,2013-01-16 12:30:00,
2013-01-16 07:33:00,27.6,24.2,30.12,SSW,195,0.0,0.0,87,0.00,,OVC,0.00,VWS V14.00,2013-01-16 12:33:00,
2013-01-16 07:38:00,27.5,24.0,30.12,SSW,195,0.0,0.0,86,0.00,,OVC,0.00,VWS V14.00,2013-01-16 12:38:00,
2013-01-16 07:43:00,27.5,24.0,30.11,SSW,195,0.0,0.0,86,0.00,,OVC,0.00,VWS V14.00,2013-01-16 12:43:00,
2013-01-16 07:48:00,27.4,23.8,30.11,SSW,195,0.0,0.0,86,0.00,,OVC,0.00,VWS V14.00,2013-01-16 12:48:00,
2013-01-16 07:53:00,27.3,23.8,30.11,SSW,195,0.0,0.0,86,0.00,,OVC,0.00,VWS V14.00,2013-01-16 12:53:00,
2013-01-16 07:58:00,27.3,24.0,30.11,SSW,195,0.0,0.0,87,0.00,,OVC,0.00,VWS V14.00,2013-01-16 12:58:00,
2013-01-16 08:00:00,27.3,23.9,30.11,SSW,195,0.0,0.0,87,0.00,,SCT,0.00,VWS V14.00,2013-01-16 13:00:00,
2013-01-16 08:03:00,27.3,24.0,30.11,SSW,195,0.0,0.0,87,0.00,,OVC,0.00,VWS V14.00,2013-01-16 13:03:00,
2013-01-16 08:08:00,27.2,24.0,30.10,SSW,195,0.0,0.0,87,0.00,,OVC,0.00,VWS V14.00,2013-01-16 13:08:00,
2013-01-16 08:13:00,27.2,24.1,30.10,SSW,195,0.0,0.0,88,0.00,,OVC,0.00,VWS V14.00,2013-01-16 13:13:00,
2013-01-16 08:18:00,27.2,24.1,30.10,SSW,195,0.0,0.0,88,0.00,,OVC,0.00,VWS V14.00,2013-01-16 13:18:00,
2013-01-16 08:23:00,27.3,24.1,30.09,SSW,195,0.0,0.0,88,0.00,,OVC,0.00,VWS V14.00,2013-01-16 13:23:00,
2013-01-16 08:28:00,27.5,24.2,30.09,SSW,195,0.0,0.0,87,0.00,,OVC,0.00,VWS V14.00,2013-01-16 13:28:00,
2013-01-16 08:30:00,27.5,24.3,30.10,SSW,195,0.0,0.0,87,0.00,,SCT,0.00,VWS V14.00,2013-01-16 13:30:00,
2013-01-16 08:33:00,27.6,24.3,30.09,SSW,195,0.0,0.0,87,0.00,,OVC,0.00,VWS V14.00,2013-01-16 13:33:00,
2013-01-16 08:38:00,27.8,24.5,30.09,NE,48,0.0,1.6,87,0.00,,OVC,0.00,VWS V14.00,2013-01-16 13:38:00,
2013-01-16 08:43:00,27.8,24.5,30.09,NE,48,0.0,1.6,87,0.00,,OVC,0.00,VWS V14.00,2013-01-16 13:43:00,
2013-01-16 08:48:00,27.9,24.6,30.09,NE,48,0.0,1.6,87,0.00,,OVC,0.00,VWS V14.00,2013-01-16 13:48:00,
2013-01-16 08:54:00,28.0,24.6,30.09,NE,48,0.0,1.6,87,0.00,,OVC,0.00,VWS V14.00,2013-01-16 13:54:00,
2013-01-16 08:59:00,28.1,24.3,30.09,NE,48,0.0,0.0,85,0.00,,OVC,0.00,VWS V14.00,2013-01-16 13:59:00,
2013-01-16 09:00:00,28.1,24.5,30.09,NE,48,0.0,1.6,86,0.00,,SCT,0.00,VWS V14.00,2013-01-16 14:00:00,
2013-01-16 09:04:00,28.4,24.2,30.09,SSE,148,3.4,4.8,84,0.00,,OVC,0.00,VWS V14.00,2013-01-16 14:04:00,
2013-01-16 09:09:00,28.8,24.4,30.08,ESE,117,0.0,4.8,83,0.00,,OVC,0.00,VWS V14.00,2013-01-16 14:09:00,
2013-01-16 09:14:00,28.9,24.3,30.08,ESE,117,0.0,4.8,83,0.00,,OVC,0.00,VWS V14.00,2013-01-16 14:14:00,
2013-01-16 09:19:00,29.1,24.4,30.07,SE,129,0.0,4.8,82,0.00,,OVC,0.00,VWS V14.00,2013-01-16 14:19:00,
2013-01-16 09:24:00,29.1,24.2,30.06,SE,129,0.0,4.8,82,0.00,,OVC,0.00,VWS V14.00,2013-01-16 14:24:00,
2013-01-16 09:29:00,29.3,24.4,30.06,SE,125,0.0,0.0,82,0.00,,OVC,0.00,VWS V14.00,2013-01-16 14:29:00,
2013-01-16 09:30:00,29.3,24.4,30.06,SE,125,0.0,4.8,82,0.00,,SCT,0.00,VWS V14.00,2013-01-16 14:30:00,
2013-01-16 09:34:00,29.4,24.3,30.06,SE,125,0.0,0.0,81,0.00,,OVC,0.00,VWS V14.00,2013-01-16 14:34:00,
2013-01-16 09:39:00,29.5,24.4,30.06,SE,125,0.0,0.0,81,0.00,,OVC,0.00,VWS V14.00,2013-01-16 14:39:00,
2013-01-16 09:44:00,29.6,24.4,30.05,SE,125,0.0,0.0,81,0.00,,OVC,0.00,VWS V14.00,2013-01-16 14:44:00,
2013-01-16 09:49:00,29.8,24.5,30.05,SE,125,0.0,0.0,80,0.00,,OVC,0.00,VWS V14.00,2013-01-16 14:49:00,
2013-01-16 09:54:00,29.9,24.6,30.05,SE,125,0.0,0.0,80,0.00,,OVC,0.00,VWS V14.00,2013-01-16 14:54:00,
2013-01-16 09:59:00,29.9,24.4,30.05,SE,125,0.0,0.0,80,0.00,,OVC,0.00,VWS V14.00,2013-01-16 14:59:00,
2013-01-16 10:00:00,30.0,24.5,30.05,SE,125,0.0,0.0,80,0.00,,SCT,0.00,VWS V14.00,2013-01-16 15:00:00,
2013-01-16 10:04:00,30.0,24.4,30.05,SE,125,0.0,0.0,79,0.00,,OVC,0.00,VWS V14.00,2013-01-16 15:04:00,
2013-01-16 10:09:00,30.1,24.3,30.05,SE,125,0.0,0.0,79,0.00,,OVC,0.00,VWS V14.00,2013-01-16 15:09:00,
2013-01-16 10:14:00,30.2,24.6,30.05,SE,125,0.0,0.0,79,0.00,,OVC,0.00,VWS V14.00,2013-01-16 15:14:00,
2013-01-16 10:19:00,30.4,24.2,30.04,SSE,148,3.8,5.7,78,0.00,,OVC,0.00,VWS V14.00,2013-01-16 15:19:00,
2013-01-16 10:24:00,30.4,24.0,30.04,SE,145,0.0,5.7,77,0.00,,OVC,0.00,VWS V14.00,2013-01-16 15:24:00,
2013-01-16 10:29:00,30.4,23.9,30.03,SSE,149,2.2,4.5,76,0.00,,OVC,0.00,VWS V14.00,2013-01-16 15:29:00,
2013-01-16 10:30:00,30.5,24.2,30.04,SE,125,2.3,5.7,77,0.00,,SCT,0.00,VWS V14.00,2013-01-16 15:30:00,
2013-01-16 10:34:00,30.6,24.1,30.03,SE,138,0.0,6.5,76,0.00,,OVC,0.00,VWS V14.00,2013-01-16 15:34:00,
2013-01-16 10:39:00,30.7,24.1,30.02,ESE,114,3.5,6.5,76,0.00,,OVC,0.00,VWS V14.00,2013-01-16 15:39:00,
2013-01-16 10:44:00,30.8,24.1,30.02,SE,138,3.7,7.4,76,0.00,,OVC,0.00,VWS V14.00,2013-01-16 15:44:00,
2013-01-16 10:49:00,30.8,24.2,30.02,SSE,156,3.7,8.9,76,0.00,,OVC,0.00,VWS V14.00,2013-01-16 15:49:00,
2013-01-16 10:54:00,30.7,24.4,30.02,SSW,200,3.1,8.9,77,0.00,,OVC,0.00,VWS V14.00,2013-01-16 15:54:00,
2013-01-16 10:59:00,30.8,25.0,30.01,SSW,207,3.2,14.1,79,0.00,,OVC,0.00,VWS V14.00,2013-01-16 15:59:00,
2013-01-16 11:00:00,30.7,24.6,30.01,SSE,153,9.5,10.8,78,0.00,,SCT,0.00,VWS V14.00,2013-01-16 16:00:00,
2013-01-16 11:04:00,30.8,25.3,30.01,South,187,8.0,14.1,80,0.00,,OVC,0.00,VWS V14.00,2013-01-16 16:04:00,
2013-01-16 11:09:00,30.9,25.7,30.01,SSE,167,7.8,14.1,81,0.00,,OVC,0.00,VWS V14.00,2013-01-16 16:09:00,
2013-01-16 11:14:00,30.6,25.8,30.00,South,184,6.5,14.1,82,0.00,,OVC,0.00,VWS V14.00,2013-01-16 16:14:00,
2013-01-16 11:19:00,30.6,26.1,29.99,South,180,3.4,14.1,83,0.00,,OVC,0.00,VWS V14.00,2013-01-16 16:19:00,
2013-01-16 11:24:00,30.6,26.4,29.99,SE,143,3.5,14.1,84,0.00,,OVC,0.00,VWS V14.00,2013-01-16 16:24:00,
2013-01-16 11:29:00,30.6,26.7,29.98,SSW,207,2.9,7.8,85,0.00,,OVC,0.00,VWS V14.00,2013-01-16 16:29:00,
2013-01-16 11:30:00,30.6,26.6,29.99,South,186,3.8,14.1,85,0.00,,SCT,0.00,VWS V14.00,2013-01-16 16:30:00,
2013-01-16 11:34:00,30.4,26.8,29.98,ESE,104,3.9,8.3,86,0.00,,OVC,0.00,VWS V14.00,2013-01-16 16:34:00,
2013-01-16 11:39:00,30.4,26.9,29.97,South,191,4.2,8.7,87,0.00,,OVC,0.00,VWS V14.00,2013-01-16 16:39:00,
2013-01-16 11:44:00,30.2,26.9,29.97,SSE,158,8.0,8.7,87,0.00,,OVC,0.00,VWS V14.00,2013-01-16 16:44:00,
2013-01-16 11:49:00,30.3,27.1,29.96,South,180,5.7,9.3,88,0.00,,OVC,0.00,VWS V14.00,2013-01-16 16:49:00,
2013-01-16 11:54:00,30.5,27.4,29.95,South,170,1.9,9.3,88,0.00,,OVC,0.00,VWS V14.00,2013-01-16 16:54:00,
2013-01-16 11:59:00,30.4,27.4,29.96,South,177,3.0,5.4,88,0.00,,OVC,0.00,VWS V14.00,2013-01-16 16:59:00,
2013-01-16 12:00:00,30.5,27.4,29.96,SSE,159,3.9,9.3,88,0.00,,SCT,0.00,VWS V14.00,2013-01-16 17:00:00,
2013-01-16 12:04:00,30.6,27.7,29.96,South,191,3.5,5.5,89,0.00,,OVC,0.00,VWS V14.00,2013-01-16 17:04:00,
2013-01-16 12:09:00,30.6,27.7,29.95,SSW,195,1.7,7.5,89,0.00,,OVC,0.00,VWS V14.00,2013-01-16 17:09:00,
2013-01-16 12:14:00,30.7,27.9,29.94,SSE,167,4.1,7.5,89,0.00,,OVC,0.00,VWS V14.00,2013-01-16 17:14:00,
2013-01-16 12:19:00,30.9,28.1,29.94,SSE,165,3.9,7.5,89,0.00,,OVC,0.00,VWS V14.00,2013-01-16 17:19:00,
2013-01-16 12:24:00,30.9,28.1,29.93,SSE,156,3.8,7.8,89,0.00,,OVC,0.00,VWS V14.00,2013-01-16 17:24:00,
2013-01-16 12:29:00,31.0,28.2,29.93,South,173,2.9,5.3,89,0.00,,OVC,0.00,VWS V14.00,2013-01-16 17:29:00,
2013-01-16 12:30:00,30.9,28.2,29.93,SW,224,4.0,7.8,89,0.00,,SCT,0.00,VWS V14.00,2013-01-16 17:30:00,
2013-01-16 12:34:00,31.1,28.4,29.92,South,172,3.7,6.6,90,0.00,,OVC,0.00,VWS V14.00,2013-01-16 17:34:00,
2013-01-16 12:39:00,31.2,28.5,29.91,SSE,152,6.2,8.1,90,0.00,,OVC,0.00,VWS V14.00,2013-01-16 17:39:00,
2013-01-16 12:44:00,31.3,28.5,29.91,SSE,160,3.0,8.1,89,0.00,,OVC,0.00,VWS V14.00,2013-01-16 17:44:00,
2013-01-16 12:49:00,31.6,28.6,29.91,SSW,204,0.0,8.1,89,0.00,,OVC,0.00,VWS V14.00,2013-01-16 17:49:00,
2013-01-16 12:54:00,31.8,28.4,29.90,SSE,156,5.0,8.1,87,0.00,,OVC,0.00,VWS V14.00,2013-01-16 17:54:00,
2013-01-16 12:59:00,32.1,28.5,29.89,SE,139,2.9,5.5,86,0.00,,OVC,0.00,VWS V14.00,2013-01-16 17:59:00,
2013-01-16 13:00:00,31.9,28.5,29.90,SSW,194,1.2,8.1,87,0.00,,SCT,0.00,VWS V14.00,2013-01-16 18:00:00,
2013-01-16 13:04:00,32.4,28.6,29.89,SSE,160,4.4,6.5,86,0.00,,OVC,0.00,VWS V14.00,2013-01-16 18:04:00,
2013-01-16 13:09:00,32.5,28.2,29.89,SSE,159,6.5,8.9,84,0.00,,OVC,0.00,VWS V14.00,2013-01-16 18:09:00,
2013-01-16 13:14:00,32.7,28.1,29.88,SE,146,5.8,8.9,83,0.00,,OVC,0.00,VWS V14.00,2013-01-16 18:14:00,
2013-01-16 13:19:00,33.1,28.5,29.88,South,191,0.2,8.9,83,0.00,,OVC,0.00,VWS V14.00,2013-01-16 18:19:00,
2013-01-16 13:24:00,33.3,28.1,29.87,SW,215,2.6,8.9,81,0.00,,OVC,0.00,VWS V14.00,2013-01-16 18:24:00,
2013-01-16 13:29:00,33.3,28.0,29.88,South,191,4.8,13.1,81,0.00,,OVC,0.00,VWS V14.00,2013-01-16 18:29:00,
2013-01-16 13:30:00,33.2,27.7,29.87,SSW,198,6.0,9.4,80,0.00,,SCT,0.00,VWS V14.00,2013-01-16 18:30:00,
2013-01-16 13:34:00,33.6,28.5,29.88,SSW,201,4.5,13.1,81,0.00,,OVC,0.00,VWS V14.00,2013-01-16 18:34:00,
2013-01-16 13:39:00,33.3,28.1,29.87,SW,217,7.0,13.1,81,0.00,,OVC,0.00,VWS V14.00,2013-01-16 18:39:00,
2013-01-16 13:44:00,33.5,28.2,29.88,SSE,162,2.2,13.1,81,0.00,,OVC,0.00,VWS V14.00,2013-01-16 18:44:00,
2013-01-16 13:49:00,33.7,28.3,29.88,SSW,212,4.2,13.1,80,0.00,,OVC,0.00,VWS V14.00,2013-01-16 18:49:00,
2013-01-16 13:54:00,33.8,28.4,29.87,South,169,7.3,13.1,80,0.00,,OVC,0.00,VWS V14.00,2013-01-16 18:54:00,
2013-01-16 13:59:00,33.8,28.0,29.87,SSW,205,4.7,10.6,79,0.00,,OVC,0.00,VWS V14.00,2013-01-16 18:59:00,
2013-01-16 14:00:00,33.6,27.8,29.87,SSE,149,10.0,13.1,79,0.00,,SCT,0.00,VWS V14.00,2013-01-16 19:00:00,
2013-01-16 14:04:00,33.8,28.0,29.87,SSW,212,7.7,10.6,79,0.00,,OVC,0.00,VWS V14.00,2013-01-16 19:04:00,
2013-01-16 14:09:00,34.0,28.3,29.87,South,170,3.0,10.6,79,0.00,,OVC,0.00,VWS V14.00,2013-01-16 19:09:00,
2013-01-16 14:14:00,34.2,28.4,29.86,South,187,6.7,12.1,79,0.00,,OVC,0.00,VWS V14.00,2013-01-16 19:14:00,
2013-01-16 14:19:00,34.3,28.2,29.86,SW,232,6.5,12.1,78,0.00,,OVC,0.00,VWS V14.00,2013-01-16 19:19:00,
2013-01-16 14:24:00,34.2,28.0,29.86,SW,217,8.0,12.1,78,0.00,,OVC,0.00,VWS V14.00,2013-01-16 19:24:00,
2013-01-16 14:29:00,34.4,28.3,29.86,SW,224,4.0,9.6,78,0.00,,OVC,0.00,VWS V14.00,2013-01-16 19:29:00,
2013-01-16 14:30:00,34.2,28.1,29.86,South,179,7.3,12.1,78,0.00,,SCT,0.00,VWS V14.00,2013-01-16 19:30:00,
2013-01-16 14:34:00,34.6,28.5,29.85,SW,225,4.6,9.6,78,0.00,,OVC,0.00,VWS V14.00,2013-01-16 19:34:00,
2013-01-16 14:39:00,34.5,28.3,29.85,SW,219,4.7,9.6,78,0.00,,OVC,0.00,VWS V14.00,2013-01-16 19:39:00,
2013-01-16 14:44:00,34.5,28.4,29.85,WSW,238,4.1,11.7,78,0.00,,OVC,0.00,VWS V14.00,2013-01-16 19:44:00,
2013-01-16 14:49:00,34.6,28.4,29.85,SSW,198,5.5,11.9,78,0.00,,OVC,0.00,VWS V14.00,2013-01-16 19:49:00,
2013-01-16 14:54:00,34.7,28.4,29.84,SSW,200,4.7,11.9,78,0.00,,OVC,0.00,VWS V14.00,2013-01-16 19:54:00,
2013-01-16 14:59:00,34.8,28.6,29.84,SW,215,3.5,8.8,78,0.00,,OVC,0.00,VWS V14.00,2013-01-16 19:59:00,
2013-01-16 15:00:00,34.7,28.5,29.84,WSW,243,4.2,11.9,78,0.00,,SCT,0.00,VWS V14.00,2013-01-16 20:00:00,
2013-01-16 15:04:00,34.9,28.8,29.84,SSE,160,7.6,12.4,78,0.00,,OVC,0.00,VWS V14.00,2013-01-16 20:04:00,
2013-01-16 15:09:00,35.1,28.6,29.84,SW,218,4.8,13.1,77,0.00,,OVC,0.00,VWS V14.00,2013-01-16 20:09:00,
2013-01-16 15:14:00,35.1,28.5,29.84,SW,219,7.5,13.1,76,0.00,,OVC,0.00,VWS V14.00,2013-01-16 20:14:00,
2013-01-16 15:19:00,35.1,28.7,29.84,SSW,208,5.4,13.1,77,0.00,,OVC,0.00,VWS V14.00,2013-01-16 20:19:00,
2013-01-16 15:24:00,35.1,28.5,29.83,SW,221,5.0,13.1,77,0.00,,OVC,0.00,VWS V14.00,2013-01-16 20:24:00,
2013-01-16 15:29:00,34.9,28.6,29.83,South,173,4.8,9.9,77,0.00,,OVC,0.00,VWS V14.00,2013-01-16 20:29:00,
2013-01-16 15:30:00,35.0,28.6,29.83,SW,236,2.8,13.1,77,0.00,,SCT,0.00,VWS V14.00,2013-01-16 20:30:00,
2013-01-16 15:34:00,34.7,28.3,29.84,South,174,4.8,12.8,77,0.00,,OVC,0.00,VWS V14.00,2013-01-16 20:34:00,
2013-01-16 15:39:00,34.8,28.6,29.84,SSE,165,7.1,12.8,78,0.00,,OVC,0.00,VWS V14.00,2013-01-16 20:39:00,
2013-01-16 15:44:00,34.9,28.7,29.84,SW,224,2.4,12.8,78,0.00,,OVC,0.00,VWS V14.00,2013-01-16 20:44:00,
2013-01-16 15:49:00,34.8,28.7,29.84,SW,226,7.0,12.8,78,0.00,,OVC,0.00,VWS V14.00,2013-01-16 20:49:00,
2013-01-16 15:54:00,34.7,28.6,29.84,SSW,212,6.5,12.8,78,0.00,,OVC,0.00,VWS V14.00,2013-01-16 20:54:00,
2013-01-16 15:59:00,34.8,28.5,29.84,SSW,194,5.3,8.5,78,0.00,,OVC,0.00,VWS V14.00,2013-01-16 20:59:00,
2013-01-16 16:00:00,34.7,28.6,29.84,South,183,7.1,12.8,78,0.00,,SCT,0.00,VWS V14.00,2013-01-16 21:00:00,
2013-01-16 16:04:00,34.7,28.6,29.84,West,260,4.3,9.0,78,0.00,,OVC,0.00,VWS V14.00,2013-01-16 21:04:00,
2013-01-16 16:09:00,34.7,28.7,29.84,SSW,202,5.1,9.0,78,0.00,,OVC,0.00,VWS V14.00,2013-01-16 21:09:00,
2013-01-16 16:14:00,34.7,28.8,29.83,SSW,194,8.1,9.1,79,0.00,,OVC,0.00,VWS V14.00,2013-01-16 21:14:00,
2013-01-16 16:19:00,34.6,28.7,29.83,South,170,8.9,9.1,79,0.00,,OVC,0.00,VWS V14.00,2013-01-16 21:19:00,
2013-01-16 16:25:00,34.6,28.7,29.82,SW,224,3.8,10.4,79,0.00,,OVC,0.00,VWS V14.00,2013-01-16 21:25:00,
2013-01-16 16:30:00,34.4,28.4,29.82,SSW,200,5.4,12.7,78,0.00,,OVC,0.00,VWS V14.00,2013-01-16 21:30:00,
2013-01-16 16:35:00,34.4,28.5,29.83,SSW,208,5.1,12.7,79,0.00,,OVC,0.00,VWS V14.00,2013-01-16 21:35:00,
2013-01-16 16:40:00,34.3,28.5,29.83,SSW,204,2.7,12.7,79,0.00,,OVC,0.00,VWS V14.00,2013-01-16 21:40:00,
2013-01-16 16:45:00,34.3,28.4,29.83,SW,219,6.1,12.7,79,0.00,,OVC,0.00,VWS V14.00,2013-01-16 21:45:00,
2013-01-16 16:50:00,34.3,28.5,29.82,SW,218,5.5,12.7,79,0.00,,OVC,0.00,VWS V14.00,2013-01-16 21:50:00,
2013-01-16 16:55:00,34.3,28.4,29.82,SSW,208,4.0,12.7,79,0.00,,OVC,0.00,VWS V14.00,2013-01-16 21:55:00,
2013-01-16 17:00:00,34.4,28.5,29.82,SSW,202,6.3,10.6,79,0.00,,OVC,0.00,VWS V14.00,2013-01-16 22:00:00,
2013-01-16 17:05:00,34.3,28.4,29.82,SSW,208,5.6,10.6,79,0.00,,OVC,0.00,VWS V14.00,2013-01-16 22:05:00,
2013-01-16 17:10:00,34.3,28.5,29.82,South,180,7.6,10.6,79,0.00,,OVC,0.00,VWS V14.00,2013-01-16 22:10:00,
2013-01-16 17:15:00,34.3,28.6,29.82,South,186,2.5,10.6,79,0.00,,OVC,0.00,VWS V14.00,2013-01-16 22:15:00,
2013-01-16 17:20:00,34.1,28.2,29.82,SW,225,5.0,13.1,79,0.00,,OVC,0.00,VWS V14.00,2013-01-16 22:20:00,
2013-01-16 17:25:00,34.2,28.3,29.82,WSW,245,3.9,13.1,79,0.00,,OVC,0.00,VWS V14.00,2013-01-16 22:25:00,
2013-01-16 17:30:00,34.2,28.1,29.82,SW,218,9.6,12.2,78,0.00,,OVC,0.00,VWS V14.00,2013-01-16 22:30:00,
2013-01-16 17:35:00,34.3,28.3,29.82,WSW,249,3.9,12.2,78,0.00,,OVC,0.00,VWS V14.00,2013-01-16 22:35:00,
2013-01-16 17:40:00,34.3,28.2,29.82,West,273,10.6,17.5,78,0.00,,OVC,0.00,VWS V14.00,2013-01-16 22:40:00,
2013-01-16 17:45:00,34.3,28.2,29.82,South,184,3.6,17.5,78,0.00,,OVC,0.00,VWS V14.00,2013-01-16 22:45:00,
2013-01-16 17:50:00,34.2,28.1,29.82,South,183,8.9,17.5,78,0.00,,OVC,0.00,VWS V14.00,2013-01-16 22:50:00,
2013-01-16 17:55:00,34.2,28.1,29.81,South,177,2.1,17.5,78,0.00,,OVC,0.00,VWS V14.00,2013-01-16 22:55:00,
2013-01-16 18:00:00,34.2,28.3,29.80,SSW,197,4.9,7.7,79,0.00,,OVC,0.00,VWS V14.00,2013-01-16 23:00:00,
2013-01-16 18:05:00,34.2,28.1,29.81,SSW,201,6.3,10.6,78,0.00,,OVC,0.00,VWS V14.00,2013-01-16 23:05:00,
2013-01-16 18:10:00,34.1,28.2,29.81,SSW,201,3.2,11.7,79,0.00,,OVC,0.00,VWS V14.00,2013-01-16 23:10:00,
2013-01-16 18:15:00,34.2,28.2,29.81,SSW,204,6.3,12.6,78,0.00,,OVC,0.00,VWS V14.00,2013-01-16 23:15:00,
2013-01-16 18:20:00,34.2,28.2,29.82,SW,225,7.4,12.6,78,0.00,,OVC,0.00,VWS V14.00,2013-01-16 23:20:00,
2013-01-16 18:25:00,34.2,28.3,29.81,SW,224,5.0,12.6,79,0.00,,OVC,0.00,VWS V14.00,2013-01-16 23:25:00,
2013-01-16 18:30:00,34.2,28.3,29.81,South,181,3.0,11.3,79,0.00,,OVC,0.00,VWS V14.00,2013-01-16 23:30:00,
2013-01-16 18:35:00,34.1,28.1,29.82,SW,217,7.0,13.7,78,0.00,,OVC,0.00,VWS V14.00,2013-01-16 23:35:00,
2013-01-16 18:40:00,34.0,28.2,29.82,SW,217,6.6,14.2,79,0.00,,OVC,0.00,VWS V14.00,2013-01-16 23:40:00,
2013-01-16 18:45:00,34.0,28.1,29.82,SSW,211,5.5,14.2,79,0.00,,OVC,0.00,VWS V14.00,2013-01-16 23:45:00,
2013-01-16 18:50:00,33.9,28.1,29.82,SW,221,6.2,14.2,79,0.00,,OVC,0.00,VWS V14.00,2013-01-16 23:50:00,
2013-01-16 18:55:00,34.0,28.3,29.82,SSW,204,9.3,14.2,80,0.00,,OVC,0.00,VWS V14.00,2013-01-16 23:55:00,
2013-01-16 19:00:00,34.0,28.2,29.82,WSW,243,7.1,11.6,79,0.00,,OVC,0.00,VWS V14.00,2013-01-17 00:00:00,
2013-01-16 19:05:00,33.9,28.1,29.82,SW,218,9.3,11.8,79,0.00,,OVC,0.00,VWS V14.00,2013-01-17 00:05:00,
2013-01-16 19:10:00,34.1,28.5,29.82,WSW,240,3.0,11.8,80,0.00,,OVC,0.00,VWS V14.00,2013-01-17 00:10:00,
2013-01-16 19:15:00,33.8,28.4,29.83,SW,222,8.5,11.8,80,0.00,,OVC,0.00,VWS V14.00,2013-01-17 00:15:00,
2013-01-16 19:20:00,33.7,28.3,29.83,SW,218,7.8,11.8,80,0.00,,OVC,0.00,VWS V14.00,2013-01-17 00:20:00,
2013-01-16 19:25:00,33.7,28.4,29.83,SW,224,8.5,11.8,81,0.00,,OVC,0.00,VWS V14.00,2013-01-17 00:25:00,
2013-01-16 19:30:00,33.6,28.3,29.84,SSW,212,6.8,10.5,81,0.00,,OVC,0.00,VWS V14.00,2013-01-17 00:30:00,
2013-01-16 19:35:00,33.5,28.3,29.84,SW,224,7.1,10.5,81,0.00,,OVC,0.00,VWS V14.00,2013-01-17 00:35:00,
2013-01-16 19:40:00,33.6,28.2,29.84,SW,231,5.8,19.2,80,0.00,,OVC,0.00,VWS V14.00,2013-01-17 00:40:00,
2013-01-16 19:45:00,33.6,28.2,29.83,SW,222,4.2,19.2,80,0.00,,OVC,0.00,VWS V14.00,2013-01-17 00:45:00,
2013-01-16 19:50:00,33.7,28.3,29.83,SSW,197,3.9,19.2,80,0.00,,OVC,0.00,VWS V14.00,2013-01-17 00:50:00,
2013-01-16 19:55:00,33.3,27.9,29.83,SW,217,9.1,19.2,80,0.00,,OVC,0.00,VWS V14.00,2013-01-17 00:55:00,
2013-01-16 20:00:00,33.6,28.3,29.83,SSW,212,3.4,10.1,81,0.00,,OVC,0.00,VWS V14.00,2013-01-17 01:00:00,
2013-01-16 20:05:00,33.6,28.2,29.82,SSW,211,4.8,11.1,80,0.00,,OVC,0.00,VWS V14.00,2013-01-17 01:05:00,
2013-01-16 20:10:00,33.5,28.1,29.82,SSW,200,4.0,15.3,80,0.00,,OVC,0.00,VWS V14.00,2013-01-17 01:10:00,
2013-01-16 20:15:00,33.5,28.1,29.82,South,190,7.3,15.3,80,0.00,,OVC,0.00,VWS V14.00,2013-01-17 01:15:00,
2013-01-16 20:20:00,33.6,28.2,29.82,SSE,156,5.9,15.3,80,0.00,,OVC,0.00,VWS V14.00,2013-01-17 01:20:00,
2013-01-16 20:25:00,33.4,28.1,29.82,South,186,3.9,15.3,81,0.00,,OVC,0.00,VWS V14.00,2013-01-17 01:25:00,
2013-01-16 20:30:00,33.1,27.9,29.82,South,180,7.5,11.3,81,0.00,,OVC,0.00,VWS V14.00,2013-01-17 01:30:00,
2013-01-16 20:35:00,33.3,28.1,29.82,SSW,201,7.5,13.3,81,0.00,,OVC,0.00,VWS V14.00,2013-01-17 01:35:00,
2013-01-16 20:40:00,33.2,28.0,29.82,SW,222,6.6,13.3,81,0.00,,OVC,0.00,VWS V14.00,2013-01-17 01:40:00,
2013-01-16 20:45:00,33.2,28.1,29.82,South,181,5.0,13.3,81,0.00,,OVC,0.00,VWS V14.00,2013-01-17 01:45:00,
2013-01-16 20:50:00,33.2,28.0,29.82,SW,229,3.5,13.3,81,0.00,,OVC,0.00,VWS V14.00,2013-01-17 01:50:00,
2013-01-16 20:55:00,33.1,27.9,29.82,SW,221,7.3,13.3,81,0.00,,OVC,0.00,VWS V14.00,2013-01-17 01:55:00,
2013-01-16 21:00:00,33.2,28.0,29.81,SSW,194,1.9,8.8,81,0.00,,OVC,0.00,VWS V14.00,2013-01-17 02:00:00,
2013-01-16 21:05:00,33.1,27.9,29.81,SSW,197,3.9,9.4,81,0.00,,OVC,0.00,VWS V14.00,2013-01-17 02:05:00,
2013-01-16 21:10:00,33.1,28.0,29.81,SSW,201,4.9,9.4,81,0.00,,OVC,0.00,VWS V14.00,2013-01-17 02:10:00,
2013-01-16 21:15:00,33.2,28.2,29.81,SSE,165,4.4,9.4,82,0.00,,OVC,0.00,VWS V14.00,2013-01-17 02:15:00,
2013-01-16 21:20:00,33.0,28.1,29.81,SW,215,7.1,9.4,82,0.00,,OVC,0.00,VWS V14.00,2013-01-17 02:20:00,
2013-01-16 21:25:00,33.1,28.1,29.81,SSW,212,3.5,10.2,82,0.00,,OVC,0.00,VWS V14.00,2013-01-17 02:25:00,
2013-01-16 21:30:00,33.3,28.3,29.81,SSW,205,4.3,7.7,82,0.00,,OVC,0.00,VWS V14.00,2013-01-17 02:30:00,
2013-01-16 21:35:00,33.2,28.2,29.81,SSE,165,8.8,10.1,82,0.00,,OVC,0.00,VWS V14.00,2013-01-17 02:35:00,
2013-01-16 21:40:00,33.3,28.2,29.80,South,180,5.1,10.3,81,0.00,,OVC,0.00,VWS V14.00,2013-01-17 02:40:00,
2013-01-16 21:45:00,33.4,28.4,29.80,South,188,5.8,10.9,82,0.00,,OVC,0.00,VWS V14.00,2013-01-17 02:45:00,
2013-01-16 21:50:00,33.4,28.3,29.80,SSW,204,4.0,10.9,81,0.00,,OVC,0.00,VWS V14.00,2013-01-17 02:50:00,
2013-01-16 21:55:00,33.5,28.4,29.80,SSW,202,9.8,11.5,81,0.00,,OVC,0.00,VWS V14.00,2013-01-17 02:55:00,
2013-01-16 22:00:00,33.7,28.5,29.81,SW,217,3.6,12.6,81,0.00,,OVC,0.00,VWS V14.00,2013-01-17 03:00:00,
2013-01-16 22:05:00,33.7,28.5,29.81,SSW,210,7.6,16.8,81,0.00,,OVC,0.00,VWS V14.00,2013-01-17 03:05:00,
2013-01-16 22:10:00,33.7,28.5,29.81,South,172,6.3,16.8,81,0.00,,OVC,0.00,VWS V14.00,2013-01-17 03:10:00,
2013-01-16 22:15:00,33.7,28.5,29.81,SW,226,4.7,16.8,81,0.00,,OVC,0.00,VWS V14.00,2013-01-17 03:15:00,
2013-01-16 22:20:00,34.0,28.7,29.81,SW,225,9.1,16.8,81,0.00,,OVC,0.00,VWS V14.00,2013-01-17 03:20:00,
2013-01-16 22:25:00,34.1,28.7,29.81,SW,219,10.6,16.8,80,0.00,,OVC,0.00,VWS V14.00,2013-01-17 03:25:00,
2013-01-16 22:30:00,34.0,28.6,29.81,SSW,200,8.7,12.7,80,0.00,,OVC,0.00,VWS V14.00,2013-01-17 03:30:00,
2013-01-16 22:36:00,34.1,28.7,29.81,SW,222,8.5,17.3,80,0.00,,OVC,0.00,VWS V14.00,2013-01-17 03:36:00,
2013-01-16 22:41:00,34.2,28.9,29.82,SSW,204,8.1,17.3,81,0.00,,OVC,0.00,VWS V14.00,2013-01-17 03:41:00,
2013-01-16 22:46:00,34.3,28.8,29.81,South,172,11.6,17.3,80,0.00,,OVC,0.00,VWS V14.00,2013-01-17 03:46:00,
2013-01-16 22:51:00,34.5,29.0,29.81,SSW,195,3.2,17.3,80,0.00,,OVC,0.00,VWS V14.00,2013-01-17 03:51:00,
2013-01-16 22:56:00,34.5,29.1,29.81,SW,215,8.8,17.3,80,0.00,,OVC,0.00,VWS V14.00,2013-01-17 03:56:00,
2013-01-16 23:00:00,34.6,29.2,29.81,SW,231,9.0,17.3,80,0.00,,SCT,0.00,VWS V14.00,2013-01-17 04:00:00,
2013-01-16 23:01:00,34.7,29.3,29.81,SSW,201,8.6,10.7,80,0.00,,OVC,0.00,VWS V14.00,2013-01-17 04:01:00,
2013-01-16 23:06:00,34.6,29.2,29.81,SW,231,7.0,16.0,80,0.00,,OVC,0.00,VWS V14.00,2013-01-17 04:06:00,
2013-01-16 23:11:00,34.7,29.2,29.81,SW,232,8.6,16.0,80,0.00,,OVC,0.00,VWS V14.00,2013-01-17 04:11:00,
2013-01-16 23:16:00,34.7,29.1,29.81,SSW,195,6.6,16.5,80,0.00,,OVC,0.00,VWS V14.00,2013-01-17 04:16:00,
2013-01-16 23:21:00,34.7,29.1,29.81,WSW,255,7.7,16.5,80,0.00,,OVC,0.00,VWS V14.00,2013-01-17 04:21:00,
2013-01-16 23:26:00,34.8,29.1,29.81,WSW,248,7.7,16.5,80,0.00,,OVC,0.00,VWS V14.00,2013-01-17 04:26:00,
2013-01-16 23:30:00,34.8,29.2,29.81,SW,215,11.2,16.5,80,0.00,,SCT,0.00,VWS V14.00,2013-01-17 04:30:00,
2013-01-16 23:31:00,34.8,29.1,29.81,SW,218,7.2,13.3,80,0.00,,OVC,0.00,VWS V14.00,2013-01-17 04:31:00,
2013-01-16 23:36:00,34.8,29.1,29.81,SW,231,7.3,13.4,80,0.00,,OVC,0.00,VWS V14.00,2013-01-17 04:36:00,
2013-01-16 23:41:00,34.7,29.0,29.81,SW,235,8.9,15.5,79,0.00,,OVC,0.00,VWS V14.00,2013-01-17 04:41:00,
2013-01-16 23:46:00,34.8,29.1,29.81,WSW,249,7.7,15.5,80,0.00,,OVC,0.00,VWS V14.00,2013-01-17 04:46:00,
2013-01-16 23:51:00,34.9,29.3,29.81,SSW,205,4.7,15.5,80,0.00,,OVC,0.00,VWS V14.00,2013-01-17 04:51:00,
2013-01-16 23:56:00,34.8,29.0,29.81,WSW,239,7.3,15.5,79,0.00,,OVC,0.00,VWS V14.00,2013-01-17 04:56:00,